sensor_id;sensor_type;location;lat;lon;timestamp;P1;durP1;ratioP1;P2;durP2;ratioP2
5219;SDS011;2629;50.768;7.308;2022-09-09T00:02:17;6.40;;;1.20;;
5219;SDS011;2629;50.768;7.308;2022-09-09T00:04:51;3.70;;;1.40;;
5219;SDS011;2629;50.768;7.308;2022-09-09T00:07:25;3.13;;;1.27;;
5219;SDS011;2629;50.768;7.308;2022-09-09T00:10:03;3.83;;;1.33;;
5219;SDS011;2629;50.768;7.308;2022-09-09T00:12:37;6.37;;;1.33;;
5219;SDS011;2629;50.768;7.308;2022-09-09T00:15:11;9.03;;;1.20;;
5219;SDS011;2629;50.768;7.308;2022-09-09T00:17:43;9.53;;;1.53;;
5219;SDS011;2629;50.768;7.308;2022-09-09T00:20:12;3.60;;;1.40;;
5219;SDS011;2629;50.768;7.308;2022-09-09T00:22:43;3.67;;;1.10;;
5219;SDS011;2629;50.768;7.308;2022-09-09T00:25:17;7.20;;;1.30;;
5219;SDS011;2629;50.768;7.308;2022-09-09T00:27:48;8.07;;;1.10;;
5219;SDS011;2629;50.768;7.308;2022-09-09T00:30:18;7.17;;;2.27;;
5219;SDS011;2629;50.768;7.308;2022-09-09T00:32:49;3.30;;;1.47;;
5219;SDS011;2629;50.768;7.308;2022-09-09T00:35:21;8.80;;;1.63;;
5219;SDS011;2629;50.768;7.308;2022-09-09T00:37:51;2.80;;;1.43;;
5219;SDS011;2629;50.768;7.308;2022-09-09T00:40:24;4.53;;;1.60;;
5219;SDS011;2629;50.768;7.308;2022-09-09T00:42:57;3.60;;;1.43;;
5219;SDS011;2629;50.768;7.308;2022-09-09T00:45:35;3.10;;;1.10;;
5219;SDS011;2629;50.768;7.308;2022-09-09T00:48:04;3.87;;;1.30;;
5219;SDS011;2629;50.768;7.308;2022-09-09T00:50:38;6.27;;;1.70;;
5219;SDS011;2629;50.768;7.308;2022-09-09T00:53:13;4.87;;;1.50;;
5219;SDS011;2629;50.768;7.308;2022-09-09T00:55:47;7.43;;;2.00;;
5219;SDS011;2629;50.768;7.308;2022-09-09T00:58:16;4.77;;;1.50;;
5219;SDS011;2629;50.768;7.308;2022-09-09T01:00:46;6.70;;;1.77;;
5219;SDS011;2629;50.768;7.308;2022-09-09T01:03:22;3.83;;;1.93;;
5219;SDS011;2629;50.768;7.308;2022-09-09T01:05:54;4.30;;;1.40;;
5219;SDS011;2629;50.768;7.308;2022-09-09T01:11:13;6.33;;;1.67;;
5219;SDS011;2629;50.768;7.308;2022-09-09T01:13:45;5.67;;;2.23;;
5219;SDS011;2629;50.768;7.308;2022-09-09T01:16:14;5.13;;;1.90;;
5219;SDS011;2629;50.768;7.308;2022-09-09T01:18:44;6.17;;;1.80;;
5219;SDS011;2629;50.768;7.308;2022-09-09T01:21:16;5.13;;;1.83;;
5219;SDS011;2629;50.768;7.308;2022-09-09T01:24:00;5.10;;;1.63;;
5219;SDS011;2629;50.768;7.308;2022-09-09T01:26:50;6.80;;;2.00;;
5219;SDS011;2629;50.768;7.308;2022-09-09T01:29:24;4.20;;;1.50;;
5219;SDS011;2629;50.768;7.308;2022-09-09T01:31:54;5.77;;;1.73;;
5219;SDS011;2629;50.768;7.308;2022-09-09T01:34:24;3.67;;;1.50;;
5219;SDS011;2629;50.768;7.308;2022-09-09T01:36:56;5.40;;;1.63;;
5219;SDS011;2629;50.768;7.308;2022-09-09T01:39:27;8.00;;;1.90;;
5219;SDS011;2629;50.768;7.308;2022-09-09T01:42:07;3.67;;;1.33;;
5219;SDS011;2629;50.768;7.308;2022-09-09T01:44:37;6.67;;;1.63;;
5219;SDS011;2629;50.768;7.308;2022-09-09T01:47:07;4.50;;;2.20;;
5219;SDS011;2629;50.768;7.308;2022-09-09T01:49:49;4.03;;;1.43;;
5219;SDS011;2629;50.768;7.308;2022-09-09T01:52:22;4.77;;;1.67;;
5219;SDS011;2629;50.768;7.308;2022-09-09T01:54:51;3.43;;;1.70;;
5219;SDS011;2629;50.768;7.308;2022-09-09T01:57:26;6.93;;;2.10;;
5219;SDS011;2629;50.768;7.308;2022-09-09T02:00:00;4.23;;;2.10;;
5219;SDS011;2629;50.768;7.308;2022-09-09T02:02:42;4.07;;;2.00;;
5219;SDS011;2629;50.768;7.308;2022-09-09T02:05:22;4.63;;;1.67;;
5219;SDS011;2629;50.768;7.308;2022-09-09T02:07:58;7.17;;;1.83;;
5219;SDS011;2629;50.768;7.308;2022-09-09T02:10:41;6.43;;;2.10;;
5219;SDS011;2629;50.768;7.308;2022-09-09T02:13:28;3.83;;;3.13;;
5219;SDS011;2629;50.768;7.308;2022-09-09T02:15:57;3.80;;;1.67;;
5219;SDS011;2629;50.768;7.308;2022-09-09T02:18:30;6.43;;;1.60;;
5219;SDS011;2629;50.768;7.308;2022-09-09T02:21:01;3.57;;;1.40;;
5219;SDS011;2629;50.768;7.308;2022-09-09T02:23:30;5.47;;;1.50;;
5219;SDS011;2629;50.768;7.308;2022-09-09T02:26:06;13.67;;;1.63;;
5219;SDS011;2629;50.768;7.308;2022-09-09T02:28:37;5.50;;;1.30;;
5219;SDS011;2629;50.768;7.308;2022-09-09T02:31:06;4.87;;;1.70;;
5219;SDS011;2629;50.768;7.308;2022-09-09T02:33:40;7.73;;;1.70;;
5219;SDS011;2629;50.768;7.308;2022-09-09T02:36:10;3.13;;;1.20;;
5219;SDS011;2629;50.768;7.308;2022-09-09T02:38:44;6.20;;;1.27;;
5219;SDS011;2629;50.768;7.308;2022-09-09T02:41:18;5.50;;;1.50;;
5219;SDS011;2629;50.768;7.308;2022-09-09T02:43:51;7.57;;;1.33;;
5219;SDS011;2629;50.768;7.308;2022-09-09T02:46:27;5.53;;;1.20;;
5219;SDS011;2629;50.768;7.308;2022-09-09T02:48:59;6.73;;;1.73;;
5219;SDS011;2629;50.768;7.308;2022-09-09T02:51:35;5.10;;;1.40;;
5219;SDS011;2629;50.768;7.308;2022-09-09T02:54:08;4.97;;;1.13;;
5219;SDS011;2629;50.768;7.308;2022-09-09T02:56:42;3.87;;;1.33;;
5219;SDS011;2629;50.768;7.308;2022-09-09T02:59:15;4.97;;;1.60;;
5219;SDS011;2629;50.768;7.308;2022-09-09T03:01:44;3.83;;;1.50;;
5219;SDS011;2629;50.768;7.308;2022-09-09T03:04:13;3.70;;;1.33;;
5219;SDS011;2629;50.768;7.308;2022-09-09T03:06:42;3.60;;;1.00;;
5219;SDS011;2629;50.768;7.308;2022-09-09T03:09:17;6.97;;;1.53;;
5219;SDS011;2629;50.768;7.308;2022-09-09T03:11:46;3.83;;;1.40;;
5219;SDS011;2629;50.768;7.308;2022-09-09T03:14:17;2.70;;;1.33;;
5219;SDS011;2629;50.768;7.308;2022-09-09T03:16:49;8.30;;;1.77;;
5219;SDS011;2629;50.768;7.308;2022-09-09T03:19:18;5.40;;;1.37;;
5219;SDS011;2629;50.768;7.308;2022-09-09T03:21:48;7.43;;;1.83;;
5219;SDS011;2629;50.768;7.308;2022-09-09T03:24:17;7.00;;;1.70;;
5219;SDS011;2629;50.768;7.308;2022-09-09T03:26:46;2.83;;;1.20;;
5219;SDS011;2629;50.768;7.308;2022-09-09T03:29:17;4.37;;;1.43;;
5219;SDS011;2629;50.768;7.308;2022-09-09T03:31:46;5.97;;;1.73;;
5219;SDS011;2629;50.768;7.308;2022-09-09T03:34:15;5.33;;;1.63;;
5219;SDS011;2629;50.768;7.308;2022-09-09T03:36:44;4.10;;;1.90;;
5219;SDS011;2629;50.768;7.308;2022-09-09T03:39:15;6.03;;;1.30;;
5219;SDS011;2629;50.768;7.308;2022-09-09T03:41:44;7.20;;;1.80;;
5219;SDS011;2629;50.768;7.308;2022-09-09T03:44:15;6.97;;;1.53;;
5219;SDS011;2629;50.768;7.308;2022-09-09T03:46:45;5.10;;;1.30;;
5219;SDS011;2629;50.768;7.308;2022-09-09T03:49:14;5.13;;;1.53;;
5219;SDS011;2629;50.768;7.308;2022-09-09T03:51:43;3.40;;;1.20;;
5219;SDS011;2629;50.768;7.308;2022-09-09T03:54:13;6.33;;;1.57;;
5219;SDS011;2629;50.768;7.308;2022-09-09T03:56:42;5.60;;;1.73;;
5219;SDS011;2629;50.768;7.308;2022-09-09T03:59:12;7.03;;;1.97;;
5219;SDS011;2629;50.768;7.308;2022-09-09T04:01:41;3.53;;;1.60;;
5219;SDS011;2629;50.768;7.308;2022-09-09T04:04:12;9.30;;;1.53;;
5219;SDS011;2629;50.768;7.308;2022-09-09T04:06:41;3.67;;;1.40;;
5219;SDS011;2629;50.768;7.308;2022-09-09T04:09:09;7.63;;;1.80;;
5219;SDS011;2629;50.768;7.308;2022-09-09T04:11:38;4.40;;;1.63;;
5219;SDS011;2629;50.768;7.308;2022-09-09T04:14:07;7.30;;;2.10;;
5219;SDS011;2629;50.768;7.308;2022-09-09T04:16:36;4.93;;;1.60;;
5219;SDS011;2629;50.768;7.308;2022-09-09T04:19:05;6.90;;;1.40;;
5219;SDS011;2629;50.768;7.308;2022-09-09T04:21:36;5.23;;;1.50;;
5219;SDS011;2629;50.768;7.308;2022-09-09T04:24:06;5.77;;;1.83;;
5219;SDS011;2629;50.768;7.308;2022-09-09T04:26:36;9.67;;;1.90;;
5219;SDS011;2629;50.768;7.308;2022-09-09T04:29:04;3.67;;;1.60;;
5219;SDS011;2629;50.768;7.308;2022-09-09T04:31:34;5.03;;;1.63;;
5219;SDS011;2629;50.768;7.308;2022-09-09T04:34:04;10.30;;;1.73;;
5219;SDS011;2629;50.768;7.308;2022-09-09T04:36:33;6.20;;;1.90;;
5219;SDS011;2629;50.768;7.308;2022-09-09T04:39:05;3.60;;;1.40;;
5219;SDS011;2629;50.768;7.308;2022-09-09T04:41:33;12.33;;;1.70;;
5219;SDS011;2629;50.768;7.308;2022-09-09T04:44:03;2.77;;;1.50;;
5219;SDS011;2629;50.768;7.308;2022-09-09T04:46:32;3.90;;;1.40;;
5219;SDS011;2629;50.768;7.308;2022-09-09T04:49:01;2.70;;;1.60;;
5219;SDS011;2629;50.768;7.308;2022-09-09T04:51:31;6.10;;;1.50;;
5219;SDS011;2629;50.768;7.308;2022-09-09T04:54:01;4.53;;;1.77;;
5219;SDS011;2629;50.768;7.308;2022-09-09T04:56:31;3.97;;;1.73;;
5219;SDS011;2629;50.768;7.308;2022-09-09T04:59:00;5.17;;;2.00;;
5219;SDS011;2629;50.768;7.308;2022-09-09T05:01:36;10.73;;;2.00;;
5219;SDS011;2629;50.768;7.308;2022-09-09T05:04:05;7.60;;;2.00;;
5219;SDS011;2629;50.768;7.308;2022-09-09T05:06:34;2.97;;;1.80;;
5219;SDS011;2629;50.768;7.308;2022-09-09T05:09:04;3.37;;;1.73;;
5219;SDS011;2629;50.768;7.308;2022-09-09T05:11:34;3.57;;;1.93;;
5219;SDS011;2629;50.768;7.308;2022-09-09T05:14:19;5.90;;;2.23;;
5219;SDS011;2629;50.768;7.308;2022-09-09T05:16:47;7.43;;;2.10;;
5219;SDS011;2629;50.768;7.308;2022-09-09T05:19:16;6.00;;;2.00;;
5219;SDS011;2629;50.768;7.308;2022-09-09T05:21:48;4.30;;;1.77;;
5219;SDS011;2629;50.768;7.308;2022-09-09T05:24:20;4.93;;;1.77;;
5219;SDS011;2629;50.768;7.308;2022-09-09T05:26:54;3.37;;;2.00;;
5219;SDS011;2629;50.768;7.308;2022-09-09T05:29:27;5.40;;;2.50;;
5219;SDS011;2629;50.768;7.308;2022-09-09T05:31:56;12.07;;;1.90;;
5219;SDS011;2629;50.768;7.308;2022-09-09T05:34:25;5.10;;;2.00;;
5219;SDS011;2629;50.768;7.308;2022-09-09T05:36:53;3.83;;;2.10;;
5219;SDS011;2629;50.768;7.308;2022-09-09T05:39:23;5.87;;;1.70;;
5219;SDS011;2629;50.768;7.308;2022-09-09T05:41:54;9.20;;;1.80;;
5219;SDS011;2629;50.768;7.308;2022-09-09T05:44:23;8.13;;;1.60;;
5219;SDS011;2629;50.768;7.308;2022-09-09T05:46:54;6.53;;;1.87;;
5219;SDS011;2629;50.768;7.308;2022-09-09T05:49:26;5.27;;;2.00;;
5219;SDS011;2629;50.768;7.308;2022-09-09T05:51:55;9.83;;;1.63;;
5219;SDS011;2629;50.768;7.308;2022-09-09T05:54:24;4.60;;;1.70;;
5219;SDS011;2629;50.768;7.308;2022-09-09T05:56:55;4.67;;;1.50;;
5219;SDS011;2629;50.768;7.308;2022-09-09T05:59:24;4.37;;;1.73;;
5219;SDS011;2629;50.768;7.308;2022-09-09T06:01:55;7.20;;;2.00;;
5219;SDS011;2629;50.768;7.308;2022-09-09T06:04:32;8.13;;;2.27;;
5219;SDS011;2629;50.768;7.308;2022-09-09T06:07:04;3.00;;;1.60;;
5219;SDS011;2629;50.768;7.308;2022-09-09T06:09:32;3.97;;;1.90;;
5219;SDS011;2629;50.768;7.308;2022-09-09T06:12:03;4.20;;;1.57;;
5219;SDS011;2629;50.768;7.308;2022-09-09T06:14:34;3.03;;;1.37;;
5219;SDS011;2629;50.768;7.308;2022-09-09T06:17:03;3.53;;;1.30;;
5219;SDS011;2629;50.768;7.308;2022-09-09T06:19:33;5.20;;;1.63;;
5219;SDS011;2629;50.768;7.308;2022-09-09T06:22:02;3.50;;;1.77;;
5219;SDS011;2629;50.768;7.308;2022-09-09T06:24:33;6.00;;;1.70;;
5219;SDS011;2629;50.768;7.308;2022-09-09T06:27:04;7.53;;;2.17;;
5219;SDS011;2629;50.768;7.308;2022-09-09T06:29:35;3.97;;;1.50;;
5219;SDS011;2629;50.768;7.308;2022-09-09T06:32:04;5.33;;;1.50;;
5219;SDS011;2629;50.768;7.308;2022-09-09T06:34:35;3.87;;;1.70;;
5219;SDS011;2629;50.768;7.308;2022-09-09T06:37:04;2.90;;;1.33;;
5219;SDS011;2629;50.768;7.308;2022-09-09T06:39:41;4.80;;;1.93;;
5219;SDS011;2629;50.768;7.308;2022-09-09T06:42:11;5.83;;;1.70;;
5219;SDS011;2629;50.768;7.308;2022-09-09T06:44:44;6.60;;;1.53;;
5219;SDS011;2629;50.768;7.308;2022-09-09T06:47:21;7.07;;;1.20;;
5219;SDS011;2629;50.768;7.308;2022-09-09T06:49:51;7.37;;;1.50;;
5219;SDS011;2629;50.768;7.308;2022-09-09T06:52:20;8.30;;;1.67;;
5219;SDS011;2629;50.768;7.308;2022-09-09T06:54:50;4.70;;;1.60;;
5219;SDS011;2629;50.768;7.308;2022-09-09T06:57:19;4.43;;;1.10;;
5219;SDS011;2629;50.768;7.308;2022-09-09T07:00:10;4.80;;;1.43;;
5219;SDS011;2629;50.768;7.308;2022-09-09T07:02:40;3.07;;;1.37;;
5219;SDS011;2629;50.768;7.308;2022-09-09T07:05:11;7.83;;;1.57;;
5219;SDS011;2629;50.768;7.308;2022-09-09T07:07:41;7.90;;;1.37;;
5219;SDS011;2629;50.768;7.308;2022-09-09T07:10:12;6.23;;;1.30;;
5219;SDS011;2629;50.768;7.308;2022-09-09T07:12:42;5.07;;;1.40;;
5219;SDS011;2629;50.768;7.308;2022-09-09T07:15:12;3.80;;;0.90;;
5219;SDS011;2629;50.768;7.308;2022-09-09T07:17:43;4.50;;;1.17;;
5219;SDS011;2629;50.768;7.308;2022-09-09T07:20:14;4.20;;;1.10;;
5219;SDS011;2629;50.768;7.308;2022-09-09T07:22:43;5.93;;;1.67;;
5219;SDS011;2629;50.768;7.308;2022-09-09T07:25:12;8.00;;;2.00;;
5219;SDS011;2629;50.768;7.308;2022-09-09T07:27:45;18.43;;;1.70;;
5219;SDS011;2629;50.768;7.308;2022-09-09T07:30:13;3.70;;;1.27;;
5219;SDS011;2629;50.768;7.308;2022-09-09T07:32:51;3.20;;;1.30;;
5219;SDS011;2629;50.768;7.308;2022-09-09T07:35:23;4.90;;;1.47;;
5219;SDS011;2629;50.768;7.308;2022-09-09T07:37:52;6.33;;;1.60;;
5219;SDS011;2629;50.768;7.308;2022-09-09T07:40:21;6.00;;;1.00;;
5219;SDS011;2629;50.768;7.308;2022-09-09T07:42:51;3.63;;;1.63;;
5219;SDS011;2629;50.768;7.308;2022-09-09T07:45:20;8.10;;;1.20;;
5219;SDS011;2629;50.768;7.308;2022-09-09T07:47:49;7.50;;;1.50;;
5219;SDS011;2629;50.768;7.308;2022-09-09T07:50:19;6.50;;;1.20;;
5219;SDS011;2629;50.768;7.308;2022-09-09T07:52:49;7.47;;;1.20;;
5219;SDS011;2629;50.768;7.308;2022-09-09T07:55:19;5.70;;;1.30;;
5219;SDS011;2629;50.768;7.308;2022-09-09T07:57:52;4.87;;;1.27;;
5219;SDS011;2629;50.768;7.308;2022-09-09T08:00:21;11.13;;;1.40;;
5219;SDS011;2629;50.768;7.308;2022-09-09T08:02:54;5.93;;;1.70;;
5219;SDS011;2629;50.768;7.308;2022-09-09T08:05:23;8.70;;;1.20;;
5219;SDS011;2629;50.768;7.308;2022-09-09T08:07:52;2.67;;;1.03;;
5219;SDS011;2629;50.768;7.308;2022-09-09T08:10:21;3.57;;;1.20;;
5219;SDS011;2629;50.768;7.308;2022-09-09T08:12:53;10.77;;;2.20;;
5219;SDS011;2629;50.768;7.308;2022-09-09T08:15:42;5.37;;;1.17;;
5219;SDS011;2629;50.768;7.308;2022-09-09T08:18:11;5.40;;;1.17;;
5219;SDS011;2629;50.768;7.308;2022-09-09T08:20:40;5.17;;;1.33;;
5219;SDS011;2629;50.768;7.308;2022-09-09T08:23:08;5.33;;;1.10;;
5219;SDS011;2629;50.768;7.308;2022-09-09T08:25:37;6.50;;;0.83;;
5219;SDS011;2629;50.768;7.308;2022-09-09T08:28:07;6.60;;;1.30;;
5219;SDS011;2629;50.768;7.308;2022-09-09T08:30:36;8.80;;;1.40;;
5219;SDS011;2629;50.768;7.308;2022-09-09T08:33:05;3.77;;;0.93;;
5219;SDS011;2629;50.768;7.308;2022-09-09T08:35:34;6.73;;;1.60;;
5219;SDS011;2629;50.768;7.308;2022-09-09T08:38:03;2.83;;;0.90;;
5219;SDS011;2629;50.768;7.308;2022-09-09T08:40:37;7.87;;;1.63;;
5219;SDS011;2629;50.768;7.308;2022-09-09T08:43:15;10.77;;;1.53;;
5219;SDS011;2629;50.768;7.308;2022-09-09T08:45:46;4.50;;;1.17;;
5219;SDS011;2629;50.768;7.308;2022-09-09T08:48:22;5.43;;;1.23;;
5219;SDS011;2629;50.768;7.308;2022-09-09T08:50:56;4.57;;;1.10;;
5219;SDS011;2629;50.768;7.308;2022-09-09T08:53:34;7.13;;;1.23;;
5219;SDS011;2629;50.768;7.308;2022-09-09T08:56:09;3.90;;;0.90;;
5219;SDS011;2629;50.768;7.308;2022-09-09T08:58:47;5.83;;;0.93;;
5219;SDS011;2629;50.768;7.308;2022-09-09T09:01:25;4.57;;;0.93;;
5219;SDS011;2629;50.768;7.308;2022-09-09T09:04:00;4.50;;;1.00;;
5219;SDS011;2629;50.768;7.308;2022-09-09T09:06:37;3.80;;;1.27;;
5219;SDS011;2629;50.768;7.308;2022-09-09T09:09:11;3.80;;;1.00;;
5219;SDS011;2629;50.768;7.308;2022-09-09T09:11:43;6.20;;;1.10;;
5219;SDS011;2629;50.768;7.308;2022-09-09T09:14:16;3.60;;;1.00;;
5219;SDS011;2629;50.768;7.308;2022-09-09T09:16:49;4.10;;;0.90;;
5219;SDS011;2629;50.768;7.308;2022-09-09T09:19:19;3.70;;;0.80;;
5219;SDS011;2629;50.768;7.308;2022-09-09T09:21:50;3.70;;;0.90;;
5219;SDS011;2629;50.768;7.308;2022-09-09T09:24:20;3.73;;;1.50;;
5219;SDS011;2629;50.768;7.308;2022-09-09T09:26:51;4.43;;;1.00;;
5219;SDS011;2629;50.768;7.308;2022-09-09T09:29:23;5.33;;;1.10;;
5219;SDS011;2629;50.768;7.308;2022-09-09T09:31:54;4.73;;;0.90;;
5219;SDS011;2629;50.768;7.308;2022-09-09T09:34:25;2.33;;;0.83;;
5219;SDS011;2629;50.768;7.308;2022-09-09T09:36:56;2.63;;;1.00;;
5219;SDS011;2629;50.768;7.308;2022-09-09T09:39:31;3.50;;;1.23;;
5219;SDS011;2629;50.768;7.308;2022-09-09T09:43:16;3.10;;;1.10;;
5219;SDS011;2629;50.768;7.308;2022-09-09T09:45:48;3.20;;;0.83;;
5219;SDS011;2629;50.768;7.308;2022-09-09T09:48:37;4.03;;;1.70;;
5219;SDS011;2629;50.768;7.308;2022-09-09T09:51:09;7.73;;;1.13;;
5219;SDS011;2629;50.768;7.308;2022-09-09T09:53:41;3.17;;;1.00;;
5219;SDS011;2629;50.768;7.308;2022-09-09T09:56:12;4.13;;;1.13;;
5219;SDS011;2629;50.768;7.308;2022-09-09T09:58:48;4.10;;;1.10;;
5219;SDS011;2629;50.768;7.308;2022-09-09T10:01:24;3.90;;;0.80;;
5219;SDS011;2629;50.768;7.308;2022-09-09T10:03:55;3.57;;;1.30;;
5219;SDS011;2629;50.768;7.308;2022-09-09T10:06:29;3.80;;;0.93;;
5219;SDS011;2629;50.768;7.308;2022-09-09T10:09:03;4.83;;;1.13;;
5219;SDS011;2629;50.768;7.308;2022-09-09T10:11:38;3.30;;;0.83;;
5219;SDS011;2629;50.768;7.308;2022-09-09T10:14:10;8.80;;;1.10;;
5219;SDS011;2629;50.768;7.308;2022-09-09T10:16:48;5.13;;;1.07;;
5219;SDS011;2629;50.768;7.308;2022-09-09T10:19:20;2.63;;;1.00;;
5219;SDS011;2629;50.768;7.308;2022-09-09T10:24:49;4.03;;;1.10;;
5219;SDS011;2629;50.768;7.308;2022-09-09T10:27:20;5.70;;;1.00;;
5219;SDS011;2629;50.768;7.308;2022-09-09T10:29:57;5.03;;;1.77;;
5219;SDS011;2629;50.768;7.308;2022-09-09T10:32:35;8.43;;;1.17;;
5219;SDS011;2629;50.768;7.308;2022-09-09T10:35:09;4.53;;;0.97;;
5219;SDS011;2629;50.768;7.308;2022-09-09T10:37:41;5.40;;;0.90;;
5219;SDS011;2629;50.768;7.308;2022-09-09T10:40:15;3.60;;;0.97;;
5219;SDS011;2629;50.768;7.308;2022-09-09T10:42:51;4.30;;;1.10;;
5219;SDS011;2629;50.768;7.308;2022-09-09T10:45:23;3.33;;;1.00;;
5219;SDS011;2629;50.768;7.308;2022-09-09T10:48:05;7.40;;;1.53;;
5219;SDS011;2629;50.768;7.308;2022-09-09T10:50:43;7.87;;;1.20;;
5219;SDS011;2629;50.768;7.308;2022-09-09T10:53:35;5.70;;;1.00;;
5219;SDS011;2629;50.768;7.308;2022-09-09T10:56:06;8.27;;;1.73;;
5219;SDS011;2629;50.768;7.308;2022-09-09T10:58:37;4.83;;;0.97;;
5219;SDS011;2629;50.768;7.308;2022-09-09T11:01:10;4.10;;;1.10;;
5219;SDS011;2629;50.768;7.308;2022-09-09T11:03:44;3.87;;;1.00;;
5219;SDS011;2629;50.768;7.308;2022-09-09T11:06:16;3.87;;;1.40;;
5219;SDS011;2629;50.768;7.308;2022-09-09T11:08:47;2.63;;;0.90;;
5219;SDS011;2629;50.768;7.308;2022-09-09T11:11:25;3.00;;;1.13;;
5219;SDS011;2629;50.768;7.308;2022-09-09T11:13:55;4.37;;;1.07;;
5219;SDS011;2629;50.768;7.308;2022-09-09T11:16:28;3.27;;;0.80;;
5219;SDS011;2629;50.768;7.308;2022-09-09T11:19:00;3.57;;;0.80;;
5219;SDS011;2629;50.768;7.308;2022-09-09T11:21:31;6.33;;;1.20;;
5219;SDS011;2629;50.768;7.308;2022-09-09T11:24:02;4.83;;;2.00;;
5219;SDS011;2629;50.768;7.308;2022-09-09T11:26:33;4.67;;;0.90;;
5219;SDS011;2629;50.768;7.308;2022-09-09T11:29:08;2.83;;;1.13;;
5219;SDS011;2629;50.768;7.308;2022-09-09T11:31:44;4.73;;;0.80;;
5219;SDS011;2629;50.768;7.308;2022-09-09T11:34:18;5.40;;;1.13;;
5219;SDS011;2629;50.768;7.308;2022-09-09T11:36:56;4.60;;;1.37;;
5219;SDS011;2629;50.768;7.308;2022-09-09T11:39:38;5.27;;;1.23;;
5219;SDS011;2629;50.768;7.308;2022-09-09T11:42:15;7.03;;;1.43;;
5219;SDS011;2629;50.768;7.308;2022-09-09T11:44:44;3.60;;;1.00;;
5219;SDS011;2629;50.768;7.308;2022-09-09T11:47:21;3.47;;;0.90;;
5219;SDS011;2629;50.768;7.308;2022-09-09T11:50:08;5.30;;;1.30;;
5219;SDS011;2629;50.768;7.308;2022-09-09T11:52:37;6.37;;;1.17;;
5219;SDS011;2629;50.768;7.308;2022-09-09T11:55:08;5.90;;;1.30;;
5219;SDS011;2629;50.768;7.308;2022-09-09T11:57:38;2.87;;;1.27;;
5219;SDS011;2629;50.768;7.308;2022-09-09T12:02:53;3.47;;;0.80;;
5219;SDS011;2629;50.768;7.308;2022-09-09T12:05:24;6.07;;;1.03;;
5219;SDS011;2629;50.768;7.308;2022-09-09T12:08:03;2.27;;;0.70;;
5219;SDS011;2629;50.768;7.308;2022-09-09T12:10:32;3.70;;;0.93;;
5219;SDS011;2629;50.768;7.308;2022-09-09T12:13:08;4.40;;;0.90;;
5219;SDS011;2629;50.768;7.308;2022-09-09T12:15:46;4.13;;;0.93;;
5219;SDS011;2629;50.768;7.308;2022-09-09T12:18:20;2.77;;;0.90;;
5219;SDS011;2629;50.768;7.308;2022-09-09T12:20:54;3.30;;;1.03;;
5219;SDS011;2629;50.768;7.308;2022-09-09T12:23:29;5.67;;;0.90;;
5219;SDS011;2629;50.768;7.308;2022-09-09T12:26:03;3.90;;;1.00;;
5219;SDS011;2629;50.768;7.308;2022-09-09T12:28:40;3.03;;;0.90;;
5219;SDS011;2629;50.768;7.308;2022-09-09T12:31:10;3.20;;;0.90;;
5219;SDS011;2629;50.768;7.308;2022-09-09T12:33:44;7.00;;;0.90;;
5219;SDS011;2629;50.768;7.308;2022-09-09T12:36:16;4.63;;;1.10;;
5219;SDS011;2629;50.768;7.308;2022-09-09T12:38:47;4.00;;;0.90;;
5219;SDS011;2629;50.768;7.308;2022-09-09T12:41:18;5.67;;;1.10;;
5219;SDS011;2629;50.768;7.308;2022-09-09T12:43:47;4.43;;;1.00;;
5219;SDS011;2629;50.768;7.308;2022-09-09T12:46:20;3.97;;;0.80;;
5219;SDS011;2629;50.768;7.308;2022-09-09T12:48:50;5.70;;;1.10;;
5219;SDS011;2629;50.768;7.308;2022-09-09T12:51:21;4.33;;;1.00;;
5219;SDS011;2629;50.768;7.308;2022-09-09T12:53:52;3.50;;;0.90;;
5219;SDS011;2629;50.768;7.308;2022-09-09T12:56:22;6.90;;;1.10;;
5219;SDS011;2629;50.768;7.308;2022-09-09T12:58:53;3.40;;;0.90;;
5219;SDS011;2629;50.768;7.308;2022-09-09T13:01:24;3.60;;;0.90;;
5219;SDS011;2629;50.768;7.308;2022-09-09T13:03:53;5.50;;;0.90;;
5219;SDS011;2629;50.768;7.308;2022-09-09T13:06:24;2.40;;;0.80;;
5219;SDS011;2629;50.768;7.308;2022-09-09T13:08:55;4.00;;;1.00;;
5219;SDS011;2629;50.768;7.308;2022-09-09T13:11:25;3.00;;;0.80;;
5219;SDS011;2629;50.768;7.308;2022-09-09T13:13:56;5.03;;;1.00;;
5219;SDS011;2629;50.768;7.308;2022-09-09T13:16:25;2.00;;;0.73;;
5219;SDS011;2629;50.768;7.308;2022-09-09T13:19:00;2.70;;;1.07;;
5219;SDS011;2629;50.768;7.308;2022-09-09T13:21:37;2.63;;;0.80;;
5219;SDS011;2629;50.768;7.308;2022-09-09T13:24:21;5.03;;;1.30;;
5219;SDS011;2629;50.768;7.308;2022-09-09T13:26:54;2.40;;;0.83;;
5219;SDS011;2629;50.768;7.308;2022-09-09T13:29:23;4.83;;;0.60;;
5219;SDS011;2629;50.768;7.308;2022-09-09T13:31:51;2.10;;;0.63;;
5219;SDS011;2629;50.768;7.308;2022-09-09T13:34:26;3.17;;;1.10;;
5219;SDS011;2629;50.768;7.308;2022-09-09T13:36:58;6.10;;;1.20;;
5219;SDS011;2629;50.768;7.308;2022-09-09T13:39:29;2.40;;;0.90;;
5219;SDS011;2629;50.768;7.308;2022-09-09T13:41:58;6.10;;;0.93;;
5219;SDS011;2629;50.768;7.308;2022-09-09T13:44:29;5.83;;;1.00;;
5219;SDS011;2629;50.768;7.308;2022-09-09T13:47:02;3.40;;;0.80;;
5219;SDS011;2629;50.768;7.308;2022-09-09T13:49:36;6.37;;;1.27;;
5219;SDS011;2629;50.768;7.308;2022-09-09T13:52:08;5.73;;;0.97;;
5219;SDS011;2629;50.768;7.308;2022-09-09T13:54:38;3.10;;;0.90;;
5219;SDS011;2629;50.768;7.308;2022-09-09T13:57:13;4.53;;;1.33;;
5219;SDS011;2629;50.768;7.308;2022-09-09T13:59:43;5.63;;;1.13;;
5219;SDS011;2629;50.768;7.308;2022-09-09T14:02:30;4.17;;;1.00;;
5219;SDS011;2629;50.768;7.308;2022-09-09T14:05:00;3.07;;;1.53;;
5219;SDS011;2629;50.768;7.308;2022-09-09T14:07:30;3.30;;;0.90;;
5219;SDS011;2629;50.768;7.308;2022-09-09T14:09:58;3.80;;;1.13;;
5219;SDS011;2629;50.768;7.308;2022-09-09T14:12:27;3.60;;;1.00;;
5219;SDS011;2629;50.768;7.308;2022-09-09T14:14:56;6.30;;;0.80;;
5219;SDS011;2629;50.768;7.308;2022-09-09T14:17:25;2.90;;;0.90;;
5219;SDS011;2629;50.768;7.308;2022-09-09T14:19:58;4.07;;;1.30;;
5219;SDS011;2629;50.768;7.308;2022-09-09T14:22:26;2.60;;;0.80;;
5219;SDS011;2629;50.768;7.308;2022-09-09T14:24:57;2.93;;;0.77;;
5219;SDS011;2629;50.768;7.308;2022-09-09T14:27:26;3.70;;;0.77;;
5219;SDS011;2629;50.768;7.308;2022-09-09T14:29:54;2.87;;;0.83;;
5219;SDS011;2629;50.768;7.308;2022-09-09T14:32:24;2.77;;;0.80;;
5219;SDS011;2629;50.768;7.308;2022-09-09T14:34:52;3.87;;;0.97;;
5219;SDS011;2629;50.768;7.308;2022-09-09T14:37:21;3.40;;;0.90;;
5219;SDS011;2629;50.768;7.308;2022-09-09T14:39:50;2.37;;;0.83;;
5219;SDS011;2629;50.768;7.308;2022-09-09T14:42:20;4.40;;;1.23;;
5219;SDS011;2629;50.768;7.308;2022-09-09T14:44:50;3.40;;;0.83;;
5219;SDS011;2629;50.768;7.308;2022-09-09T14:47:18;2.73;;;0.70;;
5219;SDS011;2629;50.768;7.308;2022-09-09T14:49:48;2.60;;;0.60;;
5219;SDS011;2629;50.768;7.308;2022-09-09T14:52:17;2.67;;;0.60;;
5219;SDS011;2629;50.768;7.308;2022-09-09T14:54:46;2.10;;;0.80;;
5219;SDS011;2629;50.768;7.308;2022-09-09T14:57:16;2.70;;;0.70;;
5219;SDS011;2629;50.768;7.308;2022-09-09T14:59:45;3.43;;;1.00;;
5219;SDS011;2629;50.768;7.308;2022-09-09T15:02:17;2.43;;;0.90;;
5219;SDS011;2629;50.768;7.308;2022-09-09T15:04:45;3.53;;;0.90;;
5219;SDS011;2629;50.768;7.308;2022-09-09T15:07:16;2.10;;;0.70;;
5219;SDS011;2629;50.768;7.308;2022-09-09T15:09:45;3.47;;;1.00;;
5219;SDS011;2629;50.768;7.308;2022-09-09T15:12:15;2.57;;;0.67;;
5219;SDS011;2629;50.768;7.308;2022-09-09T15:14:46;3.77;;;0.80;;
5219;SDS011;2629;50.768;7.308;2022-09-09T15:17:17;4.20;;;0.83;;
5219;SDS011;2629;50.768;7.308;2022-09-09T15:19:47;3.70;;;0.70;;
5219;SDS011;2629;50.768;7.308;2022-09-09T15:22:16;3.20;;;0.60;;
5219;SDS011;2629;50.768;7.308;2022-09-09T15:24:46;2.30;;;0.83;;
5219;SDS011;2629;50.768;7.308;2022-09-09T15:27:14;3.40;;;0.97;;
5219;SDS011;2629;50.768;7.308;2022-09-09T15:29:44;2.33;;;0.80;;
5219;SDS011;2629;50.768;7.308;2022-09-09T15:32:14;3.20;;;0.80;;
5219;SDS011;2629;50.768;7.308;2022-09-09T15:34:43;2.77;;;0.70;;
5219;SDS011;2629;50.768;7.308;2022-09-09T15:37:12;3.17;;;0.90;;
5219;SDS011;2629;50.768;7.308;2022-09-09T15:39:41;3.60;;;0.80;;
5219;SDS011;2629;50.768;7.308;2022-09-09T15:42:10;3.17;;;0.70;;
5219;SDS011;2629;50.768;7.308;2022-09-09T15:44:39;2.93;;;0.70;;
5219;SDS011;2629;50.768;7.308;2022-09-09T15:47:11;3.97;;;0.90;;
5219;SDS011;2629;50.768;7.308;2022-09-09T15:49:43;4.83;;;0.80;;
5219;SDS011;2629;50.768;7.308;2022-09-09T15:52:11;2.40;;;0.97;;
5219;SDS011;2629;50.768;7.308;2022-09-09T15:54:40;2.00;;;0.70;;